KCOU/COU METAR and TAF weather

Enter ICAO airport designator
Station Type Date Time Source
KCOU METAR 2018/06/25 17:05 UTC NOAA

KCOU 251705Z 12008G15KT 10SM BKN020 27/21 A2994 RMK AO2 T02720211


Station Type Date Time Source
KCOU Decoded METAR 2018/06/25 17:05 UTC NOAA

COLUMBIA REGIONAL AIRPORT, MO, United States (KCOU) 38-49N 092-13W 271M
Jun 25, 2018 - 01:05 PM EDT / 2018.06.25 1705 UTC
Wind: from the ESE (120 degrees) at 9 MPH (8 KT) gusting to 17 MPH (15 KT):0
Visibility: 10 mile(s):0
Sky conditions: mostly cloudy
Temperature: 81.0 F (27.2 C)
Dew Point: 70.0 F (21.1 C)
Relative Humidity: 69%
Pressure (altimeter): 29.94 in. Hg (1013 hPa)
ob: KCOU 251705Z 12008G15KT 10SM BKN020 27/21 A2994 RMK AO2 T02720211
cycle: 17

Station Type Date Time Source
KCOU TAF 2018/06/25 15:57 UTC NOAA

TAF
AMD KCOU 251454Z 2515/2612 12009KT P6SM SCT015 BKN070
FM251800 14010KT P6SM BKN100
FM252100 15005KT P6SM VCTS BKN050CB
FM260100 15008KT P6SM BKN050
FM260700 16008KT P6SM -SHRA VCTS BKN050CB


Example: see airport list